sensor_id;sensor_type;location;lat;lon;timestamp;P1;durP1;ratioP1;P2;durP2;ratioP2
59653;SDS011;66556;52.008;5.432;2023-06-26T00:02:14;10.1;;;7.8;;
59653;SDS011;66556;52.008;5.432;2023-06-26T00:03:50;10.6;;;7.5;;
59653;SDS011;66556;52.008;5.432;2023-06-26T00:05:26;8.6;;;7.0;;
59653;SDS011;66556;52.008;5.432;2023-06-26T00:08:40;9.4;;;7.0;;
59653;SDS011;66556;52.008;5.432;2023-06-26T00:10:17;10.21;;;7.3;;
59653;SDS011;66556;52.008;5.432;2023-06-26T00:11:53;11.3;;;7.3;;
59653;SDS011;66556;52.008;5.432;2023-06-26T00:13:29;9.4;;;6.9;;
59653;SDS011;66556;52.008;5.432;2023-06-26T00:16:43;10.9;;;7.6;;
59653;SDS011;66556;52.008;5.432;2023-06-26T00:18:19;10.3;;;7.8;;
59653;SDS011;66556;52.008;5.432;2023-06-26T00:19:55;8.2;;;7.2;;
59653;SDS011;66556;52.008;5.432;2023-06-26T00:23:10;9.21;;;7.7;;
59653;SDS011;66556;52.008;5.432;2023-06-26T00:24:48;9.4;;;7.6;;
59653;SDS011;66556;52.008;5.432;2023-06-26T00:26:25;11.0;;;7.4;;
59653;SDS011;66556;52.008;5.432;2023-06-26T00:29:39;9.21;;;7.2;;
59653;SDS011;66556;52.008;5.432;2023-06-26T00:31:15;10.3;;;7.7;;
59653;SDS011;66556;52.008;5.432;2023-06-26T00:32:51;10.0;;;7.1;;
59653;SDS011;66556;52.008;5.432;2023-06-26T00:34:27;9.81;;;7.1;;
59653;SDS011;66556;52.008;5.432;2023-06-26T00:37:40;10.0;;;7.5;;
59653;SDS011;66556;52.008;5.432;2023-06-26T00:39:17;8.6;;;7.0;;
59653;SDS011;66556;52.008;5.432;2023-06-26T00:40:53;10.9;;;7.2;;
59653;SDS011;66556;52.008;5.432;2023-06-26T00:44:05;10.5;;;7.8;;
59653;SDS011;66556;52.008;5.432;2023-06-26T00:45:42;11.1;;;7.7;;
59653;SDS011;66556;52.008;5.432;2023-06-26T00:47:18;9.6;;;6.9;;
59653;SDS011;66556;52.008;5.432;2023-06-26T00:50:35;8.1;;;6.9;;
59653;SDS011;66556;52.008;5.432;2023-06-26T00:52:11;9.6;;;7.8;;
59653;SDS011;66556;52.008;5.432;2023-06-26T00:53:48;10.7;;;7.0;;
59653;SDS011;66556;52.008;5.432;2023-06-26T00:55:25;10.5;;;7.6;;
59653;SDS011;66556;52.008;5.432;2023-06-26T00:58:40;10.0;;;6.9;;
59653;SDS011;66556;52.008;5.432;2023-06-26T01:00:17;10.0;;;7.2;;
59653;SDS011;66556;52.008;5.432;2023-06-26T01:01:54;10.9;;;7.1;;
59653;SDS011;66556;52.008;5.432;2023-06-26T01:05:06;11.9;;;7.4;;
59653;SDS011;66556;52.008;5.432;2023-06-26T01:06:44;11.8;;;7.7;;
59653;SDS011;66556;52.008;5.432;2023-06-26T01:08:22;9.4;;;7.5;;
59653;SDS011;66556;52.008;5.432;2023-06-26T01:10:00;12.0;;;8.2;;
59653;SDS011;66556;52.008;5.432;2023-06-26T01:13:14;9.6;;;7.2;;
59653;SDS011;66556;52.008;5.432;2023-06-26T01:14:52;10.3;;;7.3;;
59653;SDS011;66556;52.008;5.432;2023-06-26T01:16:29;9.9;;;7.5;;
59653;SDS011;66556;52.008;5.432;2023-06-26T01:19:43;9.21;;;7.4;;
59653;SDS011;66556;52.008;5.432;2023-06-26T01:22:58;7.1;;;5.9;;
59653;SDS011;66556;52.008;5.432;2023-06-26T01:24:45;8.0;;;5.6;;
59653;SDS011;66556;52.008;5.432;2023-06-26T01:28:16;6.8;;;5.11;;
59653;SDS011;66556;52.008;5.432;2023-06-26T01:31:32;7.1;;;4.0;;
59653;SDS011;66556;52.008;5.432;2023-06-26T01:33:10;5.11;;;3.7;;
59653;SDS011;66556;52.008;5.432;2023-06-26T01:36:28;6.0;;;3.7;;
59653;SDS011;66556;52.008;5.432;2023-06-26T01:38:14;7.2;;;3.8;;
59653;SDS011;66556;52.008;5.432;2023-06-26T01:39:52;5.7;;;3.6;;
59653;SDS011;66556;52.008;5.432;2023-06-26T01:41:28;7.0;;;3.7;;
59653;SDS011;66556;52.008;5.432;2023-06-26T01:44:51;6.8;;;3.4;;
59653;SDS011;66556;52.008;5.432;2023-06-26T01:46:33;5.4;;;3.3;;
59653;SDS011;66556;52.008;5.432;2023-06-26T01:48:20;5.9;;;3.5;;
59653;SDS011;66556;52.008;5.432;2023-06-26T01:50:05;7.4;;;3.4;;
59653;SDS011;66556;52.008;5.432;2023-06-26T01:51:46;7.1;;;3.4;;
59653;SDS011;66556;52.008;5.432;2023-06-26T01:55:15;6.0;;;3.4;;
59653;SDS011;66556;52.008;5.432;2023-06-26T01:57:04;8.1;;;3.9;;
59653;SDS011;66556;52.008;5.432;2023-06-26T01:58:43;6.6;;;3.7;;
59653;SDS011;66556;52.008;5.432;2023-06-26T02:00:22;9.6;;;3.7;;
59653;SDS011;66556;52.008;5.432;2023-06-26T02:03:37;8.2;;;3.5;;
59653;SDS011;66556;52.008;5.432;2023-06-26T02:05:14;7.5;;;3.6;;
59653;SDS011;66556;52.008;5.432;2023-06-26T02:06:50;9.31;;;3.7;;
59653;SDS011;66556;52.008;5.432;2023-06-26T02:10:04;7.3;;;3.4;;
59653;SDS011;66556;52.008;5.432;2023-06-26T02:11:42;7.7;;;3.2;;
59653;SDS011;66556;52.008;5.432;2023-06-26T02:13:18;6.7;;;3.2;;
59653;SDS011;66556;52.008;5.432;2023-06-26T02:18:08;10.4;;;3.8;;
59653;SDS011;66556;52.008;5.432;2023-06-26T02:19:44;6.0;;;3.0;;
59653;SDS011;66556;52.008;5.432;2023-06-26T02:21:20;7.3;;;3.3;;
59653;SDS011;66556;52.008;5.432;2023-06-26T02:24:32;7.3;;;3.4;;
59653;SDS011;66556;52.008;5.432;2023-06-26T02:26:09;10.0;;;3.7;;
59653;SDS011;66556;52.008;5.432;2023-06-26T02:27:45;9.1;;;3.2;;
59653;SDS011;66556;52.008;5.432;2023-06-26T02:30:57;8.1;;;3.1;;
59653;SDS011;66556;52.008;5.432;2023-06-26T02:32:33;7.1;;;3.2;;
59653;SDS011;66556;52.008;5.432;2023-06-26T02:34:09;10.9;;;3.8;;
59653;SDS011;66556;52.008;5.432;2023-06-26T02:35:46;7.7;;;3.3;;
59653;SDS011;66556;52.008;5.432;2023-06-26T02:38:59;7.6;;;3.4;;
59653;SDS011;66556;52.008;5.432;2023-06-26T02:40:35;7.2;;;3.4;;
59653;SDS011;66556;52.008;5.432;2023-06-26T02:42:11;8.71;;;3.3;;
59653;SDS011;66556;52.008;5.432;2023-06-26T02:45:24;8.9;;;3.8;;
59653;SDS011;66556;52.008;5.432;2023-06-26T02:47:02;11.4;;;3.6;;
59653;SDS011;66556;52.008;5.432;2023-06-26T02:48:38;8.81;;;3.9;;
59653;SDS011;66556;52.008;5.432;2023-06-26T02:51:51;9.81;;;3.8;;
59653;SDS011;66556;52.008;5.432;2023-06-26T02:53:27;8.31;;;3.8;;
59653;SDS011;66556;52.008;5.432;2023-06-26T02:55:04;9.71;;;4.0;;
59653;SDS011;66556;52.008;5.432;2023-06-26T02:56:41;10.3;;;3.9;;
59653;SDS011;66556;52.008;5.432;2023-06-26T02:59:55;9.31;;;3.7;;
59653;SDS011;66556;52.008;5.432;2023-06-26T03:01:31;7.6;;;3.7;;
59653;SDS011;66556;52.008;5.432;2023-06-26T03:03:08;12.2;;;4.1;;
59653;SDS011;66556;52.008;5.432;2023-06-26T03:06:22;10.21;;;4.5;;
59653;SDS011;66556;52.008;5.432;2023-06-26T03:07:58;9.0;;;4.0;;
59653;SDS011;66556;52.008;5.432;2023-06-26T03:09:34;11.8;;;4.3;;
59653;SDS011;66556;52.008;5.432;2023-06-26T03:12:47;11.3;;;4.3;;
59653;SDS011;66556;52.008;5.432;2023-06-26T03:14:25;8.9;;;4.0;;
59653;SDS011;66556;52.008;5.432;2023-06-26T03:16:03;10.3;;;4.5;;
59653;SDS011;66556;52.008;5.432;2023-06-26T03:17:41;11.2;;;4.2;;
59653;SDS011;66556;52.008;5.432;2023-06-26T03:20:53;11.7;;;4.41;;
59653;SDS011;66556;52.008;5.432;2023-06-26T03:22:32;15.0;;;4.61;;
59653;SDS011;66556;52.008;5.432;2023-06-26T03:24:09;12.7;;;4.3;;
59653;SDS011;66556;52.008;5.432;2023-06-26T03:27:23;12.1;;;4.2;;
59653;SDS011;66556;52.008;5.432;2023-06-26T03:29:00;11.5;;;3.8;;
59653;SDS011;66556;52.008;5.432;2023-06-26T03:30:37;10.3;;;4.3;;
59653;SDS011;66556;52.008;5.432;2023-06-26T03:32:14;11.7;;;4.3;;
59653;SDS011;66556;52.008;5.432;2023-06-26T03:35:27;12.4;;;4.5;;
59653;SDS011;66556;52.008;5.432;2023-06-26T03:37:05;12.8;;;4.0;;
59653;SDS011;66556;52.008;5.432;2023-06-26T03:38:42;15.8;;;4.2;;
59653;SDS011;66556;52.008;5.432;2023-06-26T03:41:55;14.3;;;4.41;;
59653;SDS011;66556;52.008;5.432;2023-06-26T03:43:32;11.0;;;4.41;;
59653;SDS011;66556;52.008;5.432;2023-06-26T03:45:08;18.8;;;4.2;;
59653;SDS011;66556;52.008;5.432;2023-06-26T03:48:21;17.3;;;4.91;;
59653;SDS011;66556;52.008;5.432;2023-06-26T03:49:58;13.5;;;5.2;;
59653;SDS011;66556;52.008;5.432;2023-06-26T03:51:35;16.5;;;4.41;;
59653;SDS011;66556;52.008;5.432;2023-06-26T03:53:11;11.5;;;4.3;;
59653;SDS011;66556;52.008;5.432;2023-06-26T03:56:26;12.0;;;4.91;;
59653;SDS011;66556;52.008;5.432;2023-06-26T03:58:03;15.0;;;4.7;;
59653;SDS011;66556;52.008;5.432;2023-06-26T03:59:40;15.1;;;5.0;;
59653;SDS011;66556;52.008;5.432;2023-06-26T04:02:53;16.61;;;4.91;;
59653;SDS011;66556;52.008;5.432;2023-06-26T04:04:30;16.8;;;4.7;;
59653;SDS011;66556;52.008;5.432;2023-06-26T04:06:07;15.1;;;5.2;;
59653;SDS011;66556;52.008;5.432;2023-06-26T04:09:19;17.0;;;4.8;;
59653;SDS011;66556;52.008;5.432;2023-06-26T04:10:55;15.9;;;4.91;;
59653;SDS011;66556;52.008;5.432;2023-06-26T04:12:33;10.8;;;4.1;;
59653;SDS011;66556;52.008;5.432;2023-06-26T04:14:10;12.9;;;4.7;;
59653;SDS011;66556;52.008;5.432;2023-06-26T04:17:23;15.8;;;4.61;;
59653;SDS011;66556;52.008;5.432;2023-06-26T04:19:00;14.0;;;4.7;;
59653;SDS011;66556;52.008;5.432;2023-06-26T04:20:38;14.1;;;4.41;;
59653;SDS011;66556;52.008;5.432;2023-06-26T04:23:52;10.7;;;4.3;;
59653;SDS011;66556;52.008;5.432;2023-06-26T04:25:29;13.6;;;4.8;;
59653;SDS011;66556;52.008;5.432;2023-06-26T04:27:05;13.7;;;5.11;;
59653;SDS011;66556;52.008;5.432;2023-06-26T04:28:43;10.7;;;4.7;;
59653;SDS011;66556;52.008;5.432;2023-06-26T04:31:57;14.5;;;4.61;;
59653;SDS011;66556;52.008;5.432;2023-06-26T04:33:33;13.8;;;4.7;;
59653;SDS011;66556;52.008;5.432;2023-06-26T04:35:10;13.8;;;4.3;;
59653;SDS011;66556;52.008;5.432;2023-06-26T04:38:25;14.7;;;4.61;;
59653;SDS011;66556;52.008;5.432;2023-06-26T04:40:01;12.9;;;4.1;;
59653;SDS011;66556;52.008;5.432;2023-06-26T04:41:37;13.7;;;4.7;;
59653;SDS011;66556;52.008;5.432;2023-06-26T04:44:52;13.7;;;4.7;;
59653;SDS011;66556;52.008;5.432;2023-06-26T04:48:05;14.9;;;4.2;;
59653;SDS011;66556;52.008;5.432;2023-06-26T04:49:42;11.6;;;4.3;;
59653;SDS011;66556;52.008;5.432;2023-06-26T04:52:55;11.7;;;4.1;;
59653;SDS011;66556;52.008;5.432;2023-06-26T04:54:32;14.4;;;4.2;;
59653;SDS011;66556;52.008;5.432;2023-06-26T04:56:07;14.4;;;4.41;;
59653;SDS011;66556;52.008;5.432;2023-06-26T04:59:20;10.21;;;3.9;;
59653;SDS011;66556;52.008;5.432;2023-06-26T05:00:56;12.6;;;4.2;;
59653;SDS011;66556;52.008;5.432;2023-06-26T05:02:33;13.3;;;4.5;;
59653;SDS011;66556;52.008;5.432;2023-06-26T05:05:48;10.0;;;3.7;;
59653;SDS011;66556;52.008;5.432;2023-06-26T05:07:25;15.9;;;4.5;;
59653;SDS011;66556;52.008;5.432;2023-06-26T05:09:02;12.8;;;3.7;;
59653;SDS011;66556;52.008;5.432;2023-06-26T05:10:39;10.7;;;3.6;;
59653;SDS011;66556;52.008;5.432;2023-06-26T05:13:52;10.0;;;3.6;;
59653;SDS011;66556;52.008;5.432;2023-06-26T05:15:29;9.71;;;3.6;;
59653;SDS011;66556;52.008;5.432;2023-06-26T05:17:06;10.6;;;3.6;;
59653;SDS011;66556;52.008;5.432;2023-06-26T05:20:20;9.4;;;3.5;;
59653;SDS011;66556;52.008;5.432;2023-06-26T05:21:58;9.9;;;3.4;;
59653;SDS011;66556;52.008;5.432;2023-06-26T05:23:37;12.0;;;3.4;;
59653;SDS011;66556;52.008;5.432;2023-06-26T05:25:14;13.1;;;3.6;;
59653;SDS011;66556;52.008;5.432;2023-06-26T05:28:29;8.31;;;3.5;;
59653;SDS011;66556;52.008;5.432;2023-06-26T05:30:08;8.4;;;3.1;;
59653;SDS011;66556;52.008;5.432;2023-06-26T05:31:45;8.4;;;2.8;;
59653;SDS011;66556;52.008;5.432;2023-06-26T05:35:04;9.21;;;3.4;;
59653;SDS011;66556;52.008;5.432;2023-06-26T05:36:42;10.0;;;3.0;;
59653;SDS011;66556;52.008;5.432;2023-06-26T05:39:56;11.5;;;3.6;;
59653;SDS011;66556;52.008;5.432;2023-06-26T05:43:11;7.3;;;2.9;;
59653;SDS011;66556;52.008;5.432;2023-06-26T05:44:48;9.71;;;2.9;;
59653;SDS011;66556;52.008;5.432;2023-06-26T05:46:24;7.4;;;2.9;;
59653;SDS011;66556;52.008;5.432;2023-06-26T05:49:39;10.4;;;3.0;;
59653;SDS011;66556;52.008;5.432;2023-06-26T05:51:16;5.5;;;2.8;;
59653;SDS011;66556;52.008;5.432;2023-06-26T05:52:53;7.5;;;2.8;;
59653;SDS011;66556;52.008;5.432;2023-06-26T05:54:31;7.3;;;2.9;;
59653;SDS011;66556;52.008;5.432;2023-06-26T05:57:46;6.2;;;2.8;;
59653;SDS011;66556;52.008;5.432;2023-06-26T05:59:23;13.2;;;3.0;;
59653;SDS011;66556;52.008;5.432;2023-06-26T06:01:00;7.3;;;2.5;;
59653;SDS011;66556;52.008;5.432;2023-06-26T06:04:15;5.6;;;2.21;;
59653;SDS011;66556;52.008;5.432;2023-06-26T06:05:51;8.4;;;2.5;;
59653;SDS011;66556;52.008;5.432;2023-06-26T06:07:27;7.1;;;2.6;;
59653;SDS011;66556;52.008;5.432;2023-06-26T06:09:04;6.0;;;2.6;;
59653;SDS011;66556;52.008;5.432;2023-06-26T06:12:17;5.4;;;2.0;;
59653;SDS011;66556;52.008;5.432;2023-06-26T06:13:54;6.1;;;2.0;;
59653;SDS011;66556;52.008;5.432;2023-06-26T06:15:31;5.5;;;2.21;;
59653;SDS011;66556;52.008;5.432;2023-06-26T06:18:45;7.4;;;2.5;;
59653;SDS011;66556;52.008;5.432;2023-06-26T06:20:22;6.9;;;2.31;;
59653;SDS011;66556;52.008;5.432;2023-06-26T06:21:59;9.1;;;2.21;;
59653;SDS011;66556;52.008;5.432;2023-06-26T06:25:13;5.11;;;2.21;;
59653;SDS011;66556;52.008;5.432;2023-06-26T06:26:50;6.2;;;2.21;;
59653;SDS011;66556;52.008;5.432;2023-06-26T06:28:27;8.71;;;2.5;;
59653;SDS011;66556;52.008;5.432;2023-06-26T06:30:04;5.7;;;2.21;;
59653;SDS011;66556;52.008;5.432;2023-06-26T06:33:19;7.1;;;2.31;;
59653;SDS011;66556;52.008;5.432;2023-06-26T06:34:56;5.5;;;2.21;;
59653;SDS011;66556;52.008;5.432;2023-06-26T06:36:33;4.8;;;2.21;;
59653;SDS011;66556;52.008;5.432;2023-06-26T06:39:46;5.7;;;2.21;;
59653;SDS011;66556;52.008;5.432;2023-06-26T06:41:24;7.1;;;2.4;;
59653;SDS011;66556;52.008;5.432;2023-06-26T06:43:01;5.0;;;2.4;;
59653;SDS011;66556;52.008;5.432;2023-06-26T06:44:38;9.6;;;2.5;;
59653;SDS011;66556;52.008;5.432;2023-06-26T06:47:50;6.0;;;2.31;;
59653;SDS011;66556;52.008;5.432;2023-06-26T06:49:27;5.6;;;2.5;;
59653;SDS011;66556;52.008;5.432;2023-06-26T06:51:05;4.7;;;2.31;;
59653;SDS011;66556;52.008;5.432;2023-06-26T06:54:19;6.0;;;2.31;;
59653;SDS011;66556;52.008;5.432;2023-06-26T06:55:56;5.4;;;2.21;;
59653;SDS011;66556;52.008;5.432;2023-06-26T06:57:33;4.8;;;2.1;;
59653;SDS011;66556;52.008;5.432;2023-06-26T07:02:27;8.2;;;2.4;;
59653;SDS011;66556;52.008;5.432;2023-06-26T07:04:03;4.7;;;2.31;;
59653;SDS011;66556;52.008;5.432;2023-06-26T07:05:41;5.6;;;2.31;;
59653;SDS011;66556;52.008;5.432;2023-06-26T07:08:55;5.5;;;2.1;;
59653;SDS011;66556;52.008;5.432;2023-06-26T07:10:31;4.91;;;2.0;;
59653;SDS011;66556;52.008;5.432;2023-06-26T07:12:08;3.7;;;1.8;;
59653;SDS011;66556;52.008;5.432;2023-06-26T07:15:23;3.2;;;1.7;;
59653;SDS011;66556;52.008;5.432;2023-06-26T07:17:00;3.7;;;1.7;;
59653;SDS011;66556;52.008;5.432;2023-06-26T07:18:37;5.11;;;2.1;;
59653;SDS011;66556;52.008;5.432;2023-06-26T07:20:13;3.7;;;1.9;;
59653;SDS011;66556;52.008;5.432;2023-06-26T07:23:27;6.8;;;2.31;;
59653;SDS011;66556;52.008;5.432;2023-06-26T07:25:03;4.8;;;1.9;;
59653;SDS011;66556;52.008;5.432;2023-06-26T07:26:40;4.1;;;2.21;;
59653;SDS011;66556;52.008;5.432;2023-06-26T07:29:54;5.7;;;2.21;;
59653;SDS011;66556;52.008;5.432;2023-06-26T07:31:31;5.4;;;2.21;;
59653;SDS011;66556;52.008;5.432;2023-06-26T07:33:08;3.9;;;1.9;;
59653;SDS011;66556;52.008;5.432;2023-06-26T07:36:23;5.6;;;2.21;;
59653;SDS011;66556;52.008;5.432;2023-06-26T07:38:00;5.8;;;2.6;;
59653;SDS011;66556;52.008;5.432;2023-06-26T07:39:37;6.0;;;2.31;;
59653;SDS011;66556;52.008;5.432;2023-06-26T07:41:14;6.6;;;2.6;;
59653;SDS011;66556;52.008;5.432;2023-06-26T07:44:27;5.5;;;2.1;;
59653;SDS011;66556;52.008;5.432;2023-06-26T07:46:05;6.4;;;2.4;;
59653;SDS011;66556;52.008;5.432;2023-06-26T07:47:42;5.3;;;2.4;;
59653;SDS011;66556;52.008;5.432;2023-06-26T07:50:55;4.61;;;2.1;;
59653;SDS011;66556;52.008;5.432;2023-06-26T07:52:34;7.9;;;2.4;;
59653;SDS011;66556;52.008;5.432;2023-06-26T07:54:10;4.91;;;2.4;;
59653;SDS011;66556;52.008;5.432;2023-06-26T07:55:48;5.2;;;2.6;;
59653;SDS011;66556;52.008;5.432;2023-06-26T07:59:02;5.3;;;2.4;;
59653;SDS011;66556;52.008;5.432;2023-06-26T08:00:39;5.8;;;2.21;;
59653;SDS011;66556;52.008;5.432;2023-06-26T08:02:17;8.6;;;2.4;;
59653;SDS011;66556;52.008;5.432;2023-06-26T08:07:06;4.41;;;2.21;;
59653;SDS011;66556;52.008;5.432;2023-06-26T08:08:44;6.1;;;2.1;;
59653;SDS011;66556;52.008;5.432;2023-06-26T08:11:58;4.5;;;1.9;;
59653;SDS011;66556;52.008;5.432;2023-06-26T08:13:35;11.2;;;2.8;;
59653;SDS011;66556;52.008;5.432;2023-06-26T08:15:13;4.8;;;2.0;;
59653;SDS011;66556;52.008;5.432;2023-06-26T08:16:49;5.9;;;2.21;;
59653;SDS011;66556;52.008;5.432;2023-06-26T08:20:03;5.9;;;2.21;;
59653;SDS011;66556;52.008;5.432;2023-06-26T08:21:40;6.8;;;2.21;;
59653;SDS011;66556;52.008;5.432;2023-06-26T08:23:17;6.2;;;2.0;;
59653;SDS011;66556;52.008;5.432;2023-06-26T08:26:30;5.3;;;1.8;;
59653;SDS011;66556;52.008;5.432;2023-06-26T08:28:07;4.1;;;1.8;;
59653;SDS011;66556;52.008;5.432;2023-06-26T08:29:44;8.5;;;2.21;;
59653;SDS011;66556;52.008;5.432;2023-06-26T08:31:22;5.6;;;1.7;;
59653;SDS011;66556;52.008;5.432;2023-06-26T08:34:35;4.0;;;1.8;;
59653;SDS011;66556;52.008;5.432;2023-06-26T08:36:12;4.8;;;1.5;;
59653;SDS011;66556;52.008;5.432;2023-06-26T08:37:49;4.5;;;1.5;;
59653;SDS011;66556;52.008;5.432;2023-06-26T08:41:02;4.41;;;1.3;;
59653;SDS011;66556;52.008;5.432;2023-06-26T08:42:39;5.11;;;1.6;;
59653;SDS011;66556;52.008;5.432;2023-06-26T08:44:16;6.4;;;1.3;;
59653;SDS011;66556;52.008;5.432;2023-06-26T08:47:31;7.3;;;1.3;;
59653;SDS011;66556;52.008;5.432;2023-06-26T08:49:13;5.8;;;1.5;;
59653;SDS011;66556;52.008;5.432;2023-06-26T08:50:56;5.2;;;1.2;;
59653;SDS011;66556;52.008;5.432;2023-06-26T08:52:37;4.8;;;1.3;;
59653;SDS011;66556;52.008;5.432;2023-06-26T08:54:21;3.8;;;1.11;;
59653;SDS011;66556;52.008;5.432;2023-06-26T08:57:43;4.41;;;1.0;;
59653;SDS011;66556;52.008;5.432;2023-06-26T08:59:21;6.0;;;1.2;;
59653;SDS011;66556;52.008;5.432;2023-06-26T09:00:58;3.5;;;1.4;;
59653;SDS011;66556;52.008;5.432;2023-06-26T09:04:15;4.3;;;1.3;;
59653;SDS011;66556;52.008;5.432;2023-06-26T09:05:51;4.3;;;1.4;;
59653;SDS011;66556;52.008;5.432;2023-06-26T09:07:29;4.7;;;1.2;;
59653;SDS011;66556;52.008;5.432;2023-06-26T09:09:06;4.7;;;1.4;;
59653;SDS011;66556;52.008;5.432;2023-06-26T09:12:20;3.9;;;1.11;;
59653;SDS011;66556;52.008;5.432;2023-06-26T09:13:58;4.5;;;1.11;;
59653;SDS011;66556;52.008;5.432;2023-06-26T09:15:37;3.3;;;0.8;;
59653;SDS011;66556;52.008;5.432;2023-06-26T09:18:53;3.4;;;1.0;;
59653;SDS011;66556;52.008;5.432;2023-06-26T09:20:32;7.5;;;1.3;;
59653;SDS011;66556;52.008;5.432;2023-06-26T09:22:10;3.3;;;1.11;;
59653;SDS011;66556;52.008;5.432;2023-06-26T09:23:50;9.4;;;1.8;;
59653;SDS011;66556;52.008;5.432;2023-06-26T09:27:04;7.0;;;1.3;;
59653;SDS011;66556;52.008;5.432;2023-06-26T09:28:42;5.2;;;1.11;;
59653;SDS011;66556;52.008;5.432;2023-06-26T09:30:20;3.9;;;1.11;;
59653;SDS011;66556;52.008;5.432;2023-06-26T09:33:36;2.8;;;0.7;;
59653;SDS011;66556;52.008;5.432;2023-06-26T09:35:14;6.1;;;1.11;;
59653;SDS011;66556;52.008;5.432;2023-06-26T09:36:52;4.7;;;1.0;;
59653;SDS011;66556;52.008;5.432;2023-06-26T09:38:29;3.8;;;1.0;;
59653;SDS011;66556;52.008;5.432;2023-06-26T09:41:45;3.9;;;1.11;;
59653;SDS011;66556;52.008;5.432;2023-06-26T09:43:23;3.6;;;0.9;;
59653;SDS011;66556;52.008;5.432;2023-06-26T09:44:59;6.0;;;0.8;;
59653;SDS011;66556;52.008;5.432;2023-06-26T09:46:37;4.61;;;0.9;;
59653;SDS011;66556;52.008;5.432;2023-06-26T09:49:52;3.0;;;1.11;;
59653;SDS011;66556;52.008;5.432;2023-06-26T09:51:30;4.2;;;1.11;;
59653;SDS011;66556;52.008;5.432;2023-06-26T09:53:07;6.1;;;1.11;;
59653;SDS011;66556;52.008;5.432;2023-06-26T09:56:22;4.61;;;0.8;;
59653;SDS011;66556;52.008;5.432;2023-06-26T09:58:00;4.5;;;1.0;;
59653;SDS011;66556;52.008;5.432;2023-06-26T09:59:39;2.21;;;1.11;;
59653;SDS011;66556;52.008;5.432;2023-06-26T10:01:17;4.61;;;1.4;;
59653;SDS011;66556;52.008;5.432;2023-06-26T10:04:32;3.7;;;1.0;;
59653;SDS011;66556;52.008;5.432;2023-06-26T10:06:11;5.11;;;1.11;;
59653;SDS011;66556;52.008;5.432;2023-06-26T10:07:48;3.6;;;1.3;;
59653;SDS011;66556;52.008;5.432;2023-06-26T10:11:04;4.2;;;0.9;;
59653;SDS011;66556;52.008;5.432;2023-06-26T10:12:40;2.6;;;0.8;;
59653;SDS011;66556;52.008;5.432;2023-06-26T10:14:23;1.7;;;0.8;;
59653;SDS011;66556;52.008;5.432;2023-06-26T10:16:03;4.2;;;0.9;;
59653;SDS011;66556;52.008;5.432;2023-06-26T10:19:23;3.3;;;1.0;;
59653;SDS011;66556;52.008;5.432;2023-06-26T10:21:01;4.3;;;0.8;;
59653;SDS011;66556;52.008;5.432;2023-06-26T10:22:40;4.41;;;0.8;;
59653;SDS011;66556;52.008;5.432;2023-06-26T10:24:20;2.9;;;0.7;;
59653;SDS011;66556;52.008;5.432;2023-06-26T10:27:38;2.8;;;1.0;;
59653;SDS011;66556;52.008;5.432;2023-06-26T10:29:20;3.8;;;1.0;;
59653;SDS011;66556;52.008;5.432;2023-06-26T10:30:59;3.0;;;0.9;;
59653;SDS011;66556;52.008;5.432;2023-06-26T10:32:39;3.5;;;0.8;;
59653;SDS011;66556;52.008;5.432;2023-06-26T10:35:54;3.2;;;0.8;;
59653;SDS011;66556;52.008;5.432;2023-06-26T10:37:50;1.9;;;0.7;;
59653;SDS011;66556;52.008;5.432;2023-06-26T10:39:45;4.7;;;1.0;;
59653;SDS011;66556;52.008;5.432;2023-06-26T10:41:23;2.31;;;0.8;;
59653;SDS011;66556;52.008;5.432;2023-06-26T10:44:47;3.2;;;0.8;;
59653;SDS011;66556;52.008;5.432;2023-06-26T10:46:25;2.9;;;0.7;;
59653;SDS011;66556;52.008;5.432;2023-06-26T10:48:03;6.5;;;0.6;;
59653;SDS011;66556;52.008;5.432;2023-06-26T10:49:41;1.8;;;0.7;;
59653;SDS011;66556;52.008;5.432;2023-06-26T10:53:07;10.1;;;0.9;;
59653;SDS011;66556;52.008;5.432;2023-06-26T10:55:01;4.7;;;0.6;;
59653;SDS011;66556;52.008;5.432;2023-06-26T10:56:40;2.1;;;0.9;;
59653;SDS011;66556;52.008;5.432;2023-06-26T10:58:26;5.9;;;0.9;;
59653;SDS011;66556;52.008;5.432;2023-06-26T11:00:19;3.6;;;0.7;;
59653;SDS011;66556;52.008;5.432;2023-06-26T11:01:59;1.9;;;0.6;;
59653;SDS011;66556;52.008;5.432;2023-06-26T11:05:23;4.8;;;1.0;;
59653;SDS011;66556;52.008;5.432;2023-06-26T11:07:14;2.9;;;0.8;;
59653;SDS011;66556;52.008;5.432;2023-06-26T11:09:00;3.3;;;1.0;;
59653;SDS011;66556;52.008;5.432;2023-06-26T11:10:51;3.5;;;1.11;;
59653;SDS011;66556;52.008;5.432;2023-06-26T11:12:37;4.41;;;0.9;;
59653;SDS011;66556;52.008;5.432;2023-06-26T11:15:52;4.0;;;0.7;;
59653;SDS011;66556;52.008;5.432;2023-06-26T11:17:28;5.0;;;0.8;;
59653;SDS011;66556;52.008;5.432;2023-06-26T11:19:05;2.8;;;0.8;;
59653;SDS011;66556;52.008;5.432;2023-06-26T11:22:20;3.5;;;1.2;;
59653;SDS011;66556;52.008;5.432;2023-06-26T11:23:58;2.7;;;0.7;;
59653;SDS011;66556;52.008;5.432;2023-06-26T11:25:35;5.7;;;0.9;;
59653;SDS011;66556;52.008;5.432;2023-06-26T11:27:13;3.4;;;0.9;;
59653;SDS011;66556;52.008;5.432;2023-06-26T11:30:29;2.7;;;0.7;;
59653;SDS011;66556;52.008;5.432;2023-06-26T11:32:06;2.5;;;0.7;;
59653;SDS011;66556;52.008;5.432;2023-06-26T11:33:45;2.5;;;0.7;;
59653;SDS011;66556;52.008;5.432;2023-06-26T11:37:00;3.8;;;0.8;;
59653;SDS011;66556;52.008;5.432;2023-06-26T11:38:37;2.1;;;0.7;;
59653;SDS011;66556;52.008;5.432;2023-06-26T11:40:17;3.2;;;0.8;;
59653;SDS011;66556;52.008;5.432;2023-06-26T11:41:54;3.2;;;0.8;;
59653;SDS011;66556;52.008;5.432;2023-06-26T11:45:07;4.1;;;0.9;;
59653;SDS011;66556;52.008;5.432;2023-06-26T11:46:45;4.2;;;0.7;;
59653;SDS011;66556;52.008;5.432;2023-06-26T11:48:22;3.8;;;1.11;;
59653;SDS011;66556;52.008;5.432;2023-06-26T11:51:41;3.9;;;0.8;;
59653;SDS011;66556;52.008;5.432;2023-06-26T11:53:19;2.8;;;0.9;;
59653;SDS011;66556;52.008;5.432;2023-06-26T11:54:56;1.8;;;0.7;;
59653;SDS011;66556;52.008;5.432;2023-06-26T11:56:33;3.1;;;0.9;;
59653;SDS011;66556;52.008;5.432;2023-06-26T11:59:49;7.3;;;1.0;;
59653;SDS011;66556;52.008;5.432;2023-06-26T12:01:27;9.5;;;1.0;;
59653;SDS011;66556;52.008;5.432;2023-06-26T12:03:08;4.8;;;0.7;;
59653;SDS011;66556;52.008;5.432;2023-06-26T12:04:45;1.7;;;0.7;;
59653;SDS011;66556;52.008;5.432;2023-06-26T12:07:59;2.5;;;0.8;;
59653;SDS011;66556;52.008;5.432;2023-06-26T12:09:38;3.3;;;0.7;;
59653;SDS011;66556;52.008;5.432;2023-06-26T12:11:16;6.2;;;0.7;;
59653;SDS011;66556;52.008;5.432;2023-06-26T12:14:31;5.8;;;0.7;;
59653;SDS011;66556;52.008;5.432;2023-06-26T12:16:08;3.5;;;0.9;;
59653;SDS011;66556;52.008;5.432;2023-06-26T12:17:46;3.2;;;0.6;;
59653;SDS011;66556;52.008;5.432;2023-06-26T12:19:24;4.41;;;0.9;;
59653;SDS011;66556;52.008;5.432;2023-06-26T12:22:39;2.6;;;0.6;;
59653;SDS011;66556;52.008;5.432;2023-06-26T12:24:16;3.1;;;0.8;;
59653;SDS011;66556;52.008;5.432;2023-06-26T12:25:54;4.8;;;1.2;;
59653;SDS011;66556;52.008;5.432;2023-06-26T12:29:10;4.8;;;0.8;;
59653;SDS011;66556;52.008;5.432;2023-06-26T12:31:11;1.8;;;0.5;;
59653;SDS011;66556;52.008;5.432;2023-06-26T12:32:50;8.31;;;0.8;;
59653;SDS011;66556;52.008;5.432;2023-06-26T12:34:28;4.1;;;0.9;;
59653;SDS011;66556;52.008;5.432;2023-06-26T12:39:24;2.8;;;0.7;;
59653;SDS011;66556;52.008;5.432;2023-06-26T12:41:01;1.2;;;0.5;;
59653;SDS011;66556;52.008;5.432;2023-06-26T12:42:39;2.0;;;0.7;;
59653;SDS011;66556;52.008;5.432;2023-06-26T12:45:55;5.9;;;0.8;;
59653;SDS011;66556;52.008;5.432;2023-06-26T12:47:32;2.1;;;0.5;;
59653;SDS011;66556;52.008;5.432;2023-06-26T12:49:08;5.7;;;0.8;;
59653;SDS011;66556;52.008;5.432;2023-06-26T12:50:48;2.8;;;0.7;;
59653;SDS011;66556;52.008;5.432;2023-06-26T12:54:03;1.8;;;0.5;;
59653;SDS011;66556;52.008;5.432;2023-06-26T12:55:40;3.4;;;0.7;;
59653;SDS011;66556;52.008;5.432;2023-06-26T12:57:16;1.8;;;0.6;;
59653;SDS011;66556;52.008;5.432;2023-06-26T13:00:31;4.7;;;0.7;;
59653;SDS011;66556;52.008;5.432;2023-06-26T13:02:08;2.0;;;0.5;;
59653;SDS011;66556;52.008;5.432;2023-06-26T13:03:46;2.6;;;0.5;;
59653;SDS011;66556;52.008;5.432;2023-06-26T13:05:22;1.5;;;0.5;;
59653;SDS011;66556;52.008;5.432;2023-06-26T13:08:36;2.21;;;0.5;;
59653;SDS011;66556;52.008;5.432;2023-06-26T13:10:13;2.31;;;0.6;;